KMSN/MSN METAR and TAF weather

Enter ICAO airport designator
Station Type Date Time Source
KMSN METAR 2019/07/20 19:53 UTC NOAA

KMSN 201953Z 02016G37KT 1 1/4SM R36/3500VP6000FT +TSRA BR SCT020CB OVC027 22/19 A2995 RMK AO2 PK WND 35042/1940 TWR VIS 2 LTG DSNT ALQDS RAB38 TSB43 SLP137 OCNL LTGIC SW TS SW MOV E P0016 T02170194 $


Station Type Date Time Source
KMSN Decoded METAR 2019/07/20 19:53 UTC NOAA

MADISON DANE COUNTY RGNL, WI, United States (KMSN) 43-08N 89-21W 261M
Jul 20, 2019 - 03:53 PM EDT / 2019.07.20 1953 UTC
Wind: from the NNE (020 degrees) at 18 MPH (16 KT) gusting to 43 MPH (37 KT):0
Visibility: 1 1/4 mile(s):0
Sky conditions: overcast
Weather: heavy rain with thunder; mist; Cumulonimbus clouds, lightning observed
Precipitation last hour: 0.16 inches
Temperature: 71.1 F (21.7 C)
Dew Point: 66.9 F (19.4 C)
Relative Humidity: 86%
Pressure (altimeter): 29.95 in. Hg (1014 hPa)
ob: KMSN 201953Z 02016G37KT 1 1/4SM R36/3500VP6000FT +TSRA BR SCT020CB OVC027 22/19 A2995 RMK AO2 PK WND 35042/1940 TWR VIS 2 LTG DSNT ALQDS RAB38 TSB43 SLP137 OCNL LTGIC SW TS SW MOV E P0016 T02170194
cycle: 20

Station Type Date Time Source
KMSN TAF 2019/07/20 20:48 UTC NOAA

TAF
AMD KMSN 201947Z 2020/2118 35015G25KT 2SM TSRA BR BKN025CB
TEMPO 2020/2022 33015G45KT 1SM +TSRA BR BKN015CB
FM210200 VRB04KT 6SM SHRA VCTS BKN021CB
FM210900 VRB03KT 6SM BR VCTS BKN070CB

Example: see airport list